createdAt,value
2022-10-22T00:00:57.806Z,54.28
2022-10-22T00:01:57.824Z,55.88
2022-10-22T00:02:57.873Z,42.26
2022-10-22T00:03:57.791Z,44.02
2022-10-22T00:04:57.792Z,52.94
2022-10-22T00:05:57.792Z,61.32
2022-10-22T00:06:57.762Z,59.08
2022-10-22T00:07:58.744Z,58.45
2022-10-22T00:08:57.804Z,55.44
2022-10-22T00:09:57.734Z,46.00
2022-10-22T00:10:57.741Z,53.98
2022-10-22T00:11:57.714Z,48.33
2022-10-22T00:12:57.733Z,48.90
2022-10-22T00:13:57.709Z,54.70
2022-10-22T00:14:57.694Z,58.15
2022-10-22T00:15:58.691Z,59.80
2022-10-22T00:16:57.676Z,53.04
2022-10-22T00:17:57.673Z,46.59
2022-10-22T00:18:57.670Z,62.34
2022-10-22T00:19:57.691Z,50.48
2022-10-22T00:20:57.645Z,56.66
2022-10-22T00:21:57.657Z,61.84
2022-10-22T00:22:57.640Z,52.88
2022-10-22T00:23:57.640Z,57.52
2022-10-22T00:24:57.622Z,58.81
2022-10-22T00:25:57.605Z,53.55
2022-10-22T00:26:57.598Z,56.76
2022-10-22T00:27:57.591Z,43.57
2022-10-22T00:30:58.480Z,56.52
2022-10-22T00:31:59.565Z,59.50
2022-10-22T00:32:59.544Z,58.55
2022-10-22T00:33:59.552Z,45.14
2022-10-22T00:34:59.538Z,58.76
2022-10-22T00:35:59.542Z,46.24
2022-10-22T00:36:59.520Z,49.20
2022-10-22T00:37:59.522Z,51.88
2022-10-22T00:38:59.501Z,55.19
2022-10-22T00:39:59.498Z,51.25
2022-10-22T00:40:59.484Z,52.29
2022-10-22T00:41:59.493Z,52.44
2022-10-22T00:42:59.487Z,46.75
2022-10-22T00:43:59.465Z,53.05
2022-10-22T00:44:59.459Z,55.75
2022-10-22T00:45:59.445Z,57.96
2022-10-22T00:46:59.449Z,45.24
2022-10-22T00:47:59.434Z,58.46
2022-10-22T00:48:59.426Z,47.61
2022-10-22T00:49:59.497Z,55.84
2022-10-22T00:50:59.416Z,51.95
2022-10-22T00:51:59.409Z,50.65
2022-10-22T00:52:59.404Z,56.63
2022-10-22T00:53:59.423Z,53.47
2022-10-22T00:54:59.379Z,52.80
2022-10-22T00:55:59.379Z,41.19
2022-10-22T00:56:59.362Z,46.49
2022-10-22T00:57:59.355Z,52.50
2022-10-22T00:58:59.422Z,56.19
2022-10-22T00:59:59.341Z,57.74
2022-10-22T01:00:59.377Z,46.29
2022-10-22T01:01:59.316Z,56.08
2022-10-22T01:02:59.316Z,41.82
2022-10-22T01:03:59.300Z,47.93
2022-10-22T01:04:59.303Z,53.74
2022-10-22T01:05:59.300Z,57.09
2022-10-22T01:06:59.282Z,52.70
2022-10-22T01:07:59.309Z,59.69
2022-10-22T01:08:59.281Z,62.29
2022-10-22T01:09:59.271Z,60.40
2022-10-22T01:10:59.264Z,53.65
2022-10-22T01:11:59.260Z,49.09
2022-10-22T01:12:59.232Z,49.86
2022-10-22T01:13:59.228Z,54.30
2022-10-22T01:14:59.235Z,45.83
2022-10-22T01:15:59.214Z,54.08
2022-10-22T01:16:59.206Z,60.03
2022-10-22T01:17:59.205Z,54.06
2022-10-22T01:18:59.185Z,55.03
2022-10-22T01:19:59.175Z,58.84
2022-10-22T01:20:59.165Z,54.58
2022-10-22T01:21:59.166Z,52.75
2022-10-22T01:22:59.165Z,57.45
2022-10-22T01:23:59.179Z,58.59
2022-10-22T01:24:59.141Z,56.27
2022-10-22T01:25:59.130Z,56.54
2022-10-22T01:26:59.132Z,47.57
2022-10-22T01:27:59.121Z,56.88
2022-10-22T01:28:59.116Z,56.92
2022-10-22T01:29:59.101Z,55.97
2022-10-22T01:30:59.088Z,46.34
2022-10-22T01:31:59.095Z,54.72
2022-10-22T01:32:59.064Z,59.48
2022-10-22T01:33:59.062Z,43.36
2022-10-22T01:34:59.069Z,49.69
2022-10-22T01:35:59.052Z,49.07
2022-10-22T01:36:59.045Z,39.96
2022-10-22T01:37:59.098Z,45.62
2022-10-22T01:38:59.053Z,56.65
2022-10-22T01:39:59.062Z,46.75
2022-10-22T01:40:59.025Z,51.69
2022-10-22T01:41:59.005Z,49.07
2022-10-22T01:42:58.996Z,44.74
2022-10-22T01:43:58.979Z,45.98
2022-10-22T01:44:58.994Z,47.32
2022-10-22T01:45:58.971Z,41.39
2022-10-22T01:46:58.962Z,47.08
2022-10-22T01:47:58.964Z,49.58
2022-10-22T01:48:58.945Z,47.68
2022-10-22T01:49:58.941Z,53.76
2022-10-22T01:50:58.934Z,49.95
2022-10-22T01:51:59.448Z,57.79
2022-10-22T01:52:58.923Z,58.97
2022-10-22T01:53:58.902Z,49.67
2022-10-22T01:54:58.908Z,56.19
2022-10-22T01:55:58.899Z,59.68
2022-10-22T01:56:58.881Z,49.24
2022-10-22T01:57:58.882Z,57.97
2022-10-22T01:58:58.873Z,41.66
2022-10-22T01:59:58.866Z,51.54
2022-10-22T02:00:58.879Z,58.31
2022-10-22T02:01:58.850Z,56.13
2022-10-22T02:02:58.867Z,54.64
2022-10-22T02:03:58.830Z,63.91
2022-10-22T02:04:58.832Z,55.83
2022-10-22T02:05:58.812Z,55.59
2022-10-22T02:06:58.826Z,54.77
2022-10-22T02:07:58.802Z,60.48
2022-10-22T02:08:58.831Z,53.30
2022-10-22T02:09:58.786Z,45.95
2022-10-22T02:10:58.778Z,42.25
2022-10-22T02:11:58.821Z,52.58
2022-10-22T02:12:58.765Z,59.93
2022-10-22T02:13:58.818Z,43.12
2022-10-22T02:14:58.749Z,47.33
2022-10-22T02:15:58.742Z,54.64
2022-10-22T02:16:58.731Z,48.76
2022-10-22T02:17:58.730Z,44.80
2022-10-22T02:18:58.734Z,51.08
2022-10-22T02:19:58.716Z,42.55
2022-10-22T02:20:58.711Z,40.04
2022-10-22T02:21:58.687Z,41.46
2022-10-22T02:22:58.695Z,56.04
2022-10-22T02:23:58.681Z,48.82
2022-10-22T02:24:58.662Z,54.87
2022-10-22T02:25:58.664Z,51.51
2022-10-22T02:26:58.648Z,47.20
2022-10-22T02:27:58.639Z,45.09
2022-10-22T02:28:58.640Z,57.08
2022-10-22T02:29:58.636Z,54.89
2022-10-22T02:30:58.622Z,48.25
2022-10-22T02:31:58.620Z,52.90
2022-10-22T02:32:58.613Z,53.40
2022-10-22T02:33:58.602Z,46.63
2022-10-22T02:34:58.596Z,55.43
2022-10-22T02:35:58.598Z,58.26
2022-10-22T02:36:58.572Z,55.90
2022-10-22T02:37:58.573Z,46.17
2022-10-22T02:38:58.564Z,58.27
2022-10-22T02:39:58.564Z,52.46
2022-10-22T02:40:58.538Z,51.55
2022-10-22T02:41:58.537Z,59.61
2022-10-22T02:42:58.528Z,58.82
2022-10-22T02:43:58.520Z,53.97
2022-10-22T02:44:58.522Z,51.69
2022-10-22T02:45:58.515Z,54.92
2022-10-22T02:46:58.499Z,52.94
2022-10-22T02:47:58.507Z,52.34
2022-10-22T02:48:58.521Z,47.00
2022-10-22T02:49:58.492Z,48.69
2022-10-22T02:50:58.478Z,50.06
2022-10-22T02:51:58.464Z,47.73
2022-10-22T02:52:58.452Z,57.45
2022-10-22T02:53:58.451Z,55.78
2022-10-22T02:54:58.488Z,53.11
2022-10-22T02:55:58.436Z,49.17
2022-10-22T02:56:58.432Z,49.68
2022-10-22T02:57:58.425Z,50.78
2022-10-22T02:58:58.406Z,53.21
2022-10-22T02:59:58.400Z,54.39
2022-10-22T03:00:58.422Z,54.63
2022-10-22T03:01:58.385Z,52.65
2022-10-22T03:02:58.382Z,49.25
2022-10-22T03:03:58.375Z,57.45
2022-10-22T03:04:58.366Z,58.35
2022-10-22T03:05:58.352Z,54.47
2022-10-22T03:06:58.341Z,58.84
2022-10-22T03:07:58.330Z,51.91
2022-10-22T03:08:58.373Z,53.09
2022-10-22T03:09:58.497Z,54.47
2022-10-22T03:10:58.310Z,56.61
2022-10-22T03:11:58.307Z,51.91
2022-10-22T03:12:58.302Z,59.76
2022-10-22T03:13:58.308Z,59.72
2022-10-22T03:14:58.288Z,48.34
2022-10-22T03:15:58.274Z,51.06
2022-10-22T03:16:58.258Z,53.48
2022-10-22T03:17:58.259Z,51.34
2022-10-22T03:18:58.265Z,53.45
2022-10-22T03:19:58.235Z,55.40
2022-10-22T03:20:58.228Z,56.13
2022-10-22T03:21:58.223Z,55.78
2022-10-22T03:22:58.219Z,62.72
2022-10-22T03:23:58.202Z,57.08
2022-10-22T03:24:58.202Z,55.54
2022-10-22T03:26:58.177Z,58.48
2022-10-22T03:27:58.179Z,62.07
2022-10-22T03:28:58.167Z,58.42
2022-10-22T03:29:58.149Z,59.31
2022-10-22T03:30:58.151Z,54.93
2022-10-22T03:31:58.146Z,57.36
2022-10-22T03:32:58.149Z,60.12
2022-10-22T03:33:58.130Z,55.86
2022-10-22T03:34:58.114Z,57.38
2022-10-22T03:35:58.118Z,59.85
2022-10-22T03:36:58.110Z,63.52
2022-10-22T03:37:58.098Z,59.68
2022-10-22T03:38:58.084Z,58.72
2022-10-22T03:39:58.091Z,59.68
2022-10-22T03:40:58.078Z,59.48
2022-10-22T03:41:58.070Z,61.40
2022-10-22T03:42:58.059Z,65.83
2022-10-22T03:43:58.058Z,59.53
2022-10-22T03:44:58.047Z,60.20
2022-10-22T03:45:58.049Z,60.44
2022-10-22T03:47:00.270Z,58.15
2022-10-22T03:47:58.019Z,57.95
2022-10-22T03:48:58.023Z,58.36
2022-10-22T03:49:58.016Z,60.53
2022-10-22T03:50:58.009Z,62.63
2022-10-22T03:51:57.986Z,59.77
2022-10-22T03:52:57.979Z,64.64
2022-10-22T03:53:57.972Z,63.31
2022-10-22T03:54:57.980Z,58.97
2022-10-22T03:55:57.970Z,59.03
2022-10-22T03:56:57.941Z,51.10
2022-10-22T03:57:57.949Z,56.87
2022-10-22T03:58:57.943Z,53.55
2022-10-22T03:59:57.937Z,61.81
2022-10-22T04:00:58.001Z,51.77
2022-10-22T04:01:57.914Z,52.01
2022-10-22T04:02:57.899Z,61.57
2022-10-22T04:03:57.902Z,63.34
2022-10-22T04:04:57.898Z,59.57
2022-10-22T04:05:57.885Z,59.86
2022-10-22T04:06:57.867Z,60.78
2022-10-22T04:07:57.862Z,58.74
2022-10-22T04:08:57.893Z,55.84
2022-10-22T04:09:57.861Z,60.35
2022-10-22T04:10:57.936Z,56.89
2022-10-22T04:11:57.826Z,52.14
2022-10-22T04:12:57.829Z,55.34
2022-10-22T04:13:57.826Z,57.91
2022-10-22T04:14:57.823Z,58.14
2022-10-22T04:15:57.797Z,59.42
2022-10-22T04:16:57.792Z,61.32
2022-10-22T04:17:57.814Z,58.25
2022-10-22T04:18:57.771Z,58.07
2022-10-22T04:19:57.820Z,57.15
2022-10-22T04:20:57.760Z,55.80
2022-10-22T04:21:57.753Z,60.57
2022-10-22T04:22:57.738Z,61.75
2022-10-22T04:23:57.729Z,58.41
2022-10-22T04:24:57.745Z,51.17
2022-10-22T04:25:57.732Z,51.36
2022-10-22T04:26:57.711Z,61.86
2022-10-22T04:27:57.696Z,54.63
2022-10-22T04:28:57.697Z,61.83
2022-10-22T04:29:57.678Z,56.78
2022-10-22T04:30:57.705Z,60.34
2022-10-22T04:31:57.676Z,62.81
2022-10-22T04:32:58.501Z,58.75
2022-10-22T04:33:57.653Z,60.15
2022-10-22T04:34:57.646Z,62.85
2022-10-22T04:35:57.634Z,64.50
2022-10-22T04:36:57.635Z,57.13
2022-10-22T04:37:57.626Z,58.57
2022-10-22T04:38:57.616Z,63.16
2022-10-22T04:39:58.296Z,63.90
2022-10-22T04:40:57.601Z,60.47
2022-10-22T04:41:57.608Z,56.03
2022-10-22T04:42:57.579Z,58.63
2022-10-22T04:43:57.573Z,56.70
2022-10-22T04:44:57.566Z,59.93
2022-10-22T04:46:58.561Z,61.85
2022-10-22T04:47:57.540Z,61.02
2022-10-22T04:48:57.545Z,61.68
2022-10-22T04:49:57.528Z,56.83
2022-10-22T04:50:58.525Z,51.51
2022-10-22T04:51:57.514Z,57.19
2022-10-22T04:52:57.506Z,61.47
2022-10-22T04:53:57.504Z,60.73
2022-10-22T04:54:57.512Z,46.82
2022-10-22T04:55:57.476Z,55.47
2022-10-22T04:56:57.462Z,57.80
2022-10-22T04:57:57.531Z,61.41
2022-10-22T04:58:57.467Z,62.01
2022-10-22T04:59:57.449Z,62.49
2022-10-22T05:00:57.493Z,57.00
2022-10-22T05:01:57.430Z,63.41
2022-10-22T05:02:57.425Z,63.65
2022-10-22T05:03:57.433Z,64.83
2022-10-22T05:04:57.410Z,62.28
2022-10-22T05:05:57.437Z,62.46
2022-10-22T05:06:57.409Z,59.85
2022-10-22T05:07:57.383Z,61.32
2022-10-22T05:08:57.430Z,61.12
2022-10-22T05:09:57.387Z,63.57
2022-10-22T05:10:57.370Z,66.32
2022-10-22T05:11:57.349Z,63.10
2022-10-22T05:12:57.337Z,58.52
2022-10-22T05:13:57.347Z,62.57
2022-10-22T05:14:57.336Z,60.38
2022-10-22T05:15:57.314Z,69.88
2022-10-22T05:16:57.320Z,67.56
2022-10-22T05:17:57.314Z,60.04
2022-10-22T05:18:57.293Z,56.43
2022-10-22T05:19:57.286Z,60.23
2022-10-22T05:20:57.270Z,58.75
2022-10-22T05:21:57.268Z,55.03
2022-10-22T05:22:57.257Z,60.51
2022-10-22T05:23:57.260Z,62.48
2022-10-22T05:24:57.260Z,66.83
2022-10-22T05:25:57.239Z,60.30
2022-10-22T05:26:57.228Z,62.16
2022-10-22T05:27:59.614Z,63.15
2022-10-22T05:28:57.212Z,65.34
2022-10-22T05:29:57.218Z,62.73
2022-10-22T05:30:57.211Z,63.53
2022-10-22T05:31:57.188Z,64.11
2022-10-22T05:32:57.187Z,65.67
2022-10-22T05:33:57.176Z,62.06
2022-10-22T05:34:57.181Z,62.28
2022-10-22T05:35:57.191Z,57.60
2022-10-22T05:36:57.141Z,62.62
2022-10-22T05:38:58.142Z,64.79
2022-10-22T05:40:06.606Z,59.39
2022-10-22T05:40:59.145Z,62.22
2022-10-22T05:41:57.116Z,62.15
2022-10-22T05:42:57.136Z,62.39
2022-10-22T05:43:57.091Z,63.38
2022-10-22T05:44:57.115Z,59.81
2022-10-22T05:45:57.081Z,58.92
2022-10-22T05:46:57.072Z,62.93
2022-10-22T05:47:57.069Z,62.13
2022-10-22T05:48:57.056Z,63.01
2022-10-22T05:49:57.042Z,62.55
2022-10-22T05:50:57.030Z,64.02
2022-10-22T05:51:57.033Z,58.34
2022-10-22T05:52:57.022Z,64.40
2022-10-22T05:53:57.019Z,63.36
2022-10-22T05:54:57.023Z,65.52
2022-10-22T05:55:56.992Z,64.07
2022-10-22T05:56:56.997Z,61.04
2022-10-22T05:57:56.992Z,59.99
2022-10-22T05:58:57.616Z,63.79
2022-10-22T05:59:56.976Z,62.63
2022-10-22T06:00:56.961Z,63.80
2022-10-22T06:01:57.025Z,59.79
2022-10-22T06:02:56.952Z,62.76
2022-10-22T06:03:56.930Z,62.19
2022-10-22T06:04:56.934Z,60.74
2022-10-22T06:05:56.920Z,60.16
2022-10-22T06:06:56.948Z,56.78
2022-10-22T06:07:56.901Z,60.83
2022-10-22T06:08:56.928Z,61.91
2022-10-22T06:09:56.897Z,61.61
2022-10-22T06:10:56.883Z,60.64
2022-10-22T06:11:56.886Z,61.18
2022-10-22T06:12:56.863Z,63.83
2022-10-22T06:13:56.858Z,63.02
2022-10-22T06:14:56.847Z,62.96
2022-10-22T06:15:56.845Z,61.53
2022-10-22T06:16:56.833Z,61.24
2022-10-22T06:17:56.829Z,59.51
2022-10-22T06:18:56.821Z,63.42
2022-10-22T06:19:56.847Z,64.25
2022-10-22T06:20:56.798Z,65.32
2022-10-22T06:21:56.785Z,61.79
2022-10-22T06:22:57.451Z,64.90
2022-10-22T06:23:56.788Z,65.54
2022-10-22T06:24:56.765Z,67.07
2022-10-22T06:25:56.755Z,65.15
2022-10-22T06:26:56.743Z,65.20
2022-10-22T06:27:56.738Z,66.25
2022-10-22T06:28:57.453Z,66.39
2022-10-22T06:29:56.723Z,66.55
2022-10-22T06:30:57.536Z,64.56
2022-10-22T06:31:56.707Z,66.13
2022-10-22T06:32:56.702Z,63.63
2022-10-22T06:33:56.705Z,61.06
2022-10-22T06:34:56.707Z,63.27
2022-10-22T06:35:56.693Z,64.30
2022-10-22T06:36:56.673Z,65.36
2022-10-22T06:37:56.676Z,63.72
2022-10-22T06:38:56.670Z,66.14
2022-10-22T06:39:57.475Z,62.73
2022-10-22T06:40:56.642Z,65.64
2022-10-22T06:41:57.533Z,63.24
2022-10-22T06:42:56.651Z,63.03
2022-10-22T06:43:56.633Z,63.57
2022-10-22T06:44:56.643Z,61.51
2022-10-22T06:45:56.625Z,63.23
2022-10-22T06:46:56.599Z,64.23
2022-10-22T06:47:56.590Z,61.95
2022-10-22T06:48:56.589Z,63.79
2022-10-22T06:49:56.596Z,65.14
2022-10-22T06:50:56.585Z,64.55
2022-10-22T06:51:56.557Z,66.02
2022-10-22T06:52:56.555Z,63.27
2022-10-22T06:53:56.563Z,63.08
2022-10-22T06:54:56.543Z,71.57
2022-10-22T06:55:56.535Z,64.49
2022-10-22T06:56:56.531Z,64.56
2022-10-22T06:57:56.513Z,62.44
2022-10-22T06:58:56.515Z,65.66
2022-10-22T06:59:56.502Z,65.28
2022-10-22T07:00:56.513Z,66.28
2022-10-22T07:01:56.487Z,67.12
2022-10-22T07:02:59.135Z,65.87
2022-10-22T07:03:56.479Z,64.16
2022-10-22T07:04:56.485Z,62.94
2022-10-22T07:05:56.518Z,63.66
2022-10-22T07:06:56.449Z,63.32
2022-10-22T07:07:56.458Z,64.96
2022-10-22T07:08:56.591Z,64.51
2022-10-22T07:09:56.426Z,61.97
2022-10-22T07:10:56.420Z,65.27
2022-10-22T07:11:56.428Z,64.34
2022-10-22T07:14:44.886Z,61.31
2022-10-22T07:15:45.888Z,63.22
2022-10-22T07:16:45.866Z,64.55
2022-10-22T07:17:45.871Z,62.91
2022-10-22T07:18:45.857Z,64.34
2022-10-22T07:19:49.609Z,67.85
2022-10-22T07:20:48.162Z,65.10
2022-10-22T07:21:45.811Z,66.67
2022-10-22T07:22:45.799Z,64.55
2022-10-22T07:23:45.809Z,63.96
2022-10-22T07:24:45.781Z,67.05
2022-10-22T07:25:45.823Z,65.60
2022-10-22T07:26:46.664Z,64.17
2022-10-22T07:27:45.788Z,63.98
2022-10-22T07:28:45.757Z,65.51
2022-10-22T07:29:45.783Z,63.37
2022-10-22T07:30:45.761Z,66.71
2022-10-22T07:31:45.746Z,67.11
2022-10-22T07:32:46.718Z,65.74
2022-10-22T07:33:45.723Z,63.72
2022-10-22T07:34:45.713Z,64.90
2022-10-22T07:35:45.722Z,63.72
2022-10-22T07:36:45.687Z,65.38
2022-10-22T07:37:45.716Z,65.00
2022-10-22T07:38:45.677Z,64.41
2022-10-22T07:39:45.675Z,62.83
2022-10-22T07:40:45.675Z,62.16
2022-10-22T07:41:45.653Z,61.89
2022-10-22T07:42:45.654Z,63.64
2022-10-22T07:43:45.648Z,63.90
2022-10-22T07:44:45.654Z,63.76
2022-10-22T07:45:45.620Z,63.38
2022-10-22T07:46:48.819Z,64.40
2022-10-22T07:47:46.606Z,65.19
2022-10-22T07:48:45.636Z,64.82
2022-10-22T07:49:45.598Z,64.95
2022-10-22T07:50:45.622Z,63.20
2022-10-22T07:51:45.588Z,62.36
2022-10-22T07:52:45.571Z,64.65
2022-10-22T07:53:45.582Z,63.32
2022-10-22T07:54:45.556Z,64.43
2022-10-22T07:55:45.548Z,66.62
2022-10-22T07:56:45.541Z,64.41
2022-10-22T07:57:45.527Z,66.30
2022-10-22T07:58:45.528Z,66.08
2022-10-22T07:59:45.530Z,64.25
2022-10-22T08:00:45.504Z,64.19
2022-10-22T08:01:45.552Z,67.02
2022-10-22T08:02:45.492Z,63.73
2022-10-22T08:03:45.498Z,64.45
2022-10-22T08:04:45.477Z,64.96
2022-10-22T08:05:45.479Z,65.86
2022-10-22T08:06:47.231Z,64.04
2022-10-22T08:07:45.501Z,64.42
2022-10-22T08:08:45.487Z,62.36
2022-10-22T08:09:45.449Z,64.90
2022-10-22T08:10:45.428Z,61.82
2022-10-22T08:11:48.350Z,65.30
2022-10-22T08:12:45.422Z,64.34
2022-10-22T08:13:45.980Z,64.08
2022-10-22T08:14:46.411Z,61.16
2022-10-22T08:16:45.373Z,63.26
2022-10-22T08:17:45.387Z,64.50
2022-10-22T08:18:45.367Z,64.68
2022-10-22T08:19:45.352Z,65.03
2022-10-22T08:20:46.353Z,66.44
2022-10-22T08:21:45.350Z,67.64
2022-10-22T08:22:45.330Z,64.81
2022-10-22T08:23:45.333Z,65.45
2022-10-22T08:24:45.324Z,62.65
2022-10-22T08:25:45.308Z,62.93
2022-10-22T08:26:45.302Z,62.54
2022-10-22T08:27:45.291Z,65.54
2022-10-22T08:28:45.338Z,66.47
2022-10-22T08:29:45.294Z,65.20
2022-10-22T08:30:45.294Z,65.48
2022-10-22T08:31:45.253Z,65.38
2022-10-22T08:32:45.249Z,64.46
2022-10-22T08:33:45.242Z,67.14
2022-10-22T08:34:45.236Z,62.81
2022-10-22T08:35:45.228Z,64.00
2022-10-22T08:36:45.228Z,66.46
2022-10-22T08:37:45.221Z,66.06
2022-10-22T08:38:45.218Z,64.23
2022-10-22T08:39:45.209Z,64.46
2022-10-22T08:40:45.217Z,64.82
2022-10-22T08:41:45.331Z,65.55
2022-10-22T08:42:45.196Z,65.55
2022-10-22T08:43:45.189Z,63.85
2022-10-22T08:44:45.160Z,66.90
2022-10-22T08:45:46.147Z,64.63
2022-10-22T08:46:45.145Z,65.61
2022-10-22T08:47:45.145Z,63.96
2022-10-22T08:48:45.131Z,64.66
2022-10-22T08:49:45.116Z,66.15
2022-10-22T08:50:45.120Z,65.28
2022-10-22T08:51:45.106Z,65.36
2022-10-22T08:52:45.090Z,65.49
2022-10-22T08:53:45.086Z,65.15
2022-10-22T08:54:45.293Z,66.35
2022-10-22T08:55:45.074Z,66.24
2022-10-22T08:56:45.065Z,65.58
2022-10-22T08:57:46.637Z,65.41
2022-10-22T08:58:45.090Z,65.48
2022-10-22T08:59:45.046Z,65.50
2022-10-22T09:00:45.071Z,65.45
2022-10-22T09:01:45.022Z,66.04
2022-10-22T09:02:45.149Z,66.93
2022-10-22T09:03:45.006Z,65.44
2022-10-22T09:04:44.999Z,66.90
2022-10-22T09:05:45.011Z,65.20
2022-10-22T09:06:44.986Z,65.41
2022-10-22T09:07:44.980Z,64.31
2022-10-22T09:08:45.023Z,65.56
2022-10-22T09:09:44.980Z,64.36
2022-10-22T09:10:44.947Z,64.63
2022-10-22T09:11:44.938Z,64.37
2022-10-22T09:12:44.949Z,64.14
2022-10-22T09:13:44.925Z,63.74
2022-10-22T09:14:44.928Z,65.44
2022-10-22T09:15:46.552Z,64.77
2022-10-22T09:16:45.925Z,65.57
2022-10-22T09:17:45.039Z,64.93
2022-10-22T09:18:44.891Z,64.82
2022-10-22T09:19:44.880Z,68.05
2022-10-22T09:20:44.921Z,64.60
2022-10-22T09:21:44.861Z,66.74
2022-10-22T09:22:44.862Z,65.22
2022-10-22T09:23:44.865Z,66.14
2022-10-22T09:24:44.841Z,64.60
2022-10-22T09:25:44.860Z,63.37
2022-10-22T09:26:44.895Z,63.53
2022-10-22T09:27:44.910Z,65.98
2022-10-22T09:28:44.821Z,66.72
2022-10-22T09:29:44.848Z,64.20
2022-10-22T09:30:44.834Z,65.94
2022-10-22T09:31:44.790Z,65.06
2022-10-22T09:32:44.790Z,65.97
2022-10-22T09:33:45.676Z,67.21
2022-10-22T09:34:44.769Z,66.87
2022-10-22T09:35:44.751Z,62.79
2022-10-22T09:36:44.750Z,65.02
2022-10-22T09:37:44.735Z,66.15
2022-10-22T09:38:44.730Z,63.47
2022-10-22T09:39:44.733Z,65.14
2022-10-22T09:40:44.714Z,64.12
2022-10-22T09:41:44.718Z,63.55
2022-10-22T09:42:44.698Z,65.75
2022-10-22T09:43:44.695Z,65.53
2022-10-22T09:44:47.653Z,64.05
2022-10-22T09:45:44.676Z,65.82
2022-10-22T09:46:44.675Z,64.12
2022-10-22T09:48:00.982Z,63.62
2022-10-22T09:48:46.658Z,65.90
2022-10-22T09:49:45.257Z,65.21
2022-10-22T09:50:44.690Z,63.20
2022-10-22T09:51:44.627Z,64.19
2022-10-22T09:52:44.735Z,66.67
2022-10-22T09:53:44.619Z,64.09
2022-10-22T09:54:44.618Z,64.18
2022-10-22T09:55:44.667Z,66.01
2022-10-22T09:56:44.595Z,64.74
2022-10-22T09:57:44.674Z,65.45
2022-10-22T09:58:45.259Z,65.43
2022-10-22T09:59:44.568Z,64.79
2022-10-22T10:00:44.569Z,67.30
2022-10-22T10:01:44.553Z,66.05
2022-10-22T10:02:44.616Z,65.49
2022-10-22T10:03:44.571Z,65.42
2022-10-22T10:04:44.538Z,63.56
2022-10-22T10:05:44.522Z,64.41
2022-10-22T10:06:44.546Z,63.97
2022-10-22T10:07:44.872Z,65.41
2022-10-22T10:08:44.544Z,65.68
2022-10-22T10:09:44.509Z,64.69
2022-10-22T10:10:44.484Z,62.54
2022-10-22T10:11:45.476Z,63.54
2022-10-22T10:13:44.470Z,64.56
2022-10-22T10:14:44.474Z,63.05
2022-10-22T10:15:44.460Z,64.29
2022-10-22T10:16:44.441Z,65.45
2022-10-22T10:17:44.836Z,65.26
2022-10-22T10:18:44.426Z,65.79
2022-10-22T10:19:44.421Z,66.92
2022-10-22T10:20:44.421Z,67.71
2022-10-22T10:21:44.421Z,64.66
2022-10-22T10:22:44.774Z,64.25
2022-10-22T10:23:44.400Z,64.13
2022-10-22T10:24:44.385Z,63.55
2022-10-22T10:25:44.378Z,65.02
2022-10-22T10:26:44.364Z,66.16
2022-10-22T10:27:44.359Z,64.79
2022-10-22T10:28:45.206Z,63.58
2022-10-22T10:29:44.348Z,65.16
2022-10-22T10:30:44.349Z,66.65
2022-10-22T10:31:44.325Z,64.51
2022-10-22T10:32:44.515Z,66.84
2022-10-22T10:33:44.310Z,66.23
2022-10-22T10:34:44.310Z,64.77
2022-10-22T10:35:44.302Z,65.01
2022-10-22T10:36:44.295Z,65.38
2022-10-22T10:37:44.276Z,64.07
2022-10-22T10:38:44.274Z,63.93
2022-10-22T10:39:44.263Z,65.44
2022-10-22T10:40:44.259Z,65.12
2022-10-22T10:41:44.244Z,65.33
2022-10-22T10:42:44.463Z,66.35
2022-10-22T10:43:44.231Z,64.24
2022-10-22T10:44:44.232Z,63.96
2022-10-22T10:45:44.235Z,65.19
2022-10-22T10:46:44.221Z,63.69
2022-10-22T10:47:44.471Z,64.01
2022-10-22T10:48:44.194Z,63.19
2022-10-22T10:49:44.184Z,64.78
2022-10-22T10:50:44.186Z,64.83
2022-10-22T10:51:44.165Z,64.10
2022-10-22T10:52:44.168Z,64.27
2022-10-22T10:53:44.149Z,65.00
2022-10-22T10:54:44.154Z,63.96
2022-10-22T10:55:44.166Z,64.86
2022-10-22T10:56:44.134Z,66.07
2022-10-22T10:57:44.284Z,62.82
2022-10-22T10:58:45.784Z,63.83
2022-10-22T10:59:44.161Z,63.22
2022-10-22T11:00:44.097Z,66.18
2022-10-22T11:01:44.295Z,65.72
2022-10-22T11:02:44.143Z,66.47
2022-10-22T11:03:44.132Z,66.01
2022-10-22T11:04:44.063Z,65.84
2022-10-22T11:05:44.062Z,64.42
2022-10-22T11:06:44.072Z,65.48
2022-10-22T11:07:44.051Z,65.53
2022-10-22T11:08:44.047Z,64.67
2022-10-22T11:09:44.034Z,64.04
2022-10-22T11:10:44.016Z,64.82
2022-10-22T11:11:44.018Z,63.05
2022-10-22T11:12:44.317Z,63.65
2022-10-22T11:13:43.993Z,65.95
2022-10-22T11:14:43.992Z,61.79
2022-10-22T11:15:43.975Z,64.86
2022-10-22T11:16:43.979Z,63.64
2022-10-22T11:17:43.970Z,64.56
2022-10-22T11:18:43.950Z,66.17
2022-10-22T11:19:51.234Z,64.22
2022-10-22T11:20:45.934Z,66.97
2022-10-22T11:21:43.938Z,62.74
2022-10-22T11:23:00.432Z,63.52
2022-10-22T11:23:45.915Z,62.30
2022-10-22T11:24:44.815Z,66.63
2022-10-22T11:25:43.894Z,65.19
2022-10-22T11:26:43.887Z,64.93
2022-10-22T11:27:44.283Z,64.25
2022-10-22T11:28:43.870Z,64.77
2022-10-22T11:29:43.868Z,64.02
2022-10-22T11:30:43.856Z,64.17
2022-10-22T11:31:43.848Z,66.05
2022-10-22T11:32:44.003Z,66.09
2022-10-22T11:33:43.880Z,63.81
2022-10-22T11:34:43.818Z,64.35
2022-10-22T11:35:43.810Z,63.63
2022-10-22T11:36:43.871Z,65.50
2022-10-22T11:37:44.467Z,65.58
2022-10-22T11:38:43.806Z,63.80
2022-10-22T11:39:43.781Z,64.48
2022-10-22T11:40:43.775Z,63.26
2022-10-22T11:41:43.773Z,64.18
2022-10-22T11:42:43.771Z,63.46
2022-10-22T11:43:43.749Z,63.87
2022-10-22T11:44:43.798Z,62.68
2022-10-22T11:45:43.741Z,62.73
2022-10-22T11:46:43.744Z,62.37
2022-10-22T11:47:43.759Z,62.53
2022-10-22T11:48:43.715Z,66.28
2022-10-22T11:49:43.718Z,64.60
2022-10-22T11:50:43.698Z,62.69
2022-10-22T11:51:43.694Z,64.13
2022-10-22T11:52:43.693Z,63.54
2022-10-22T11:53:43.676Z,65.31
2022-10-22T11:54:43.682Z,63.42
2022-10-22T11:55:43.666Z,64.16
2022-10-22T11:56:43.659Z,63.84
2022-10-22T11:57:43.897Z,64.56
2022-10-22T11:58:43.651Z,63.52
2022-10-22T11:59:43.625Z,64.64
2022-10-22T12:00:43.624Z,65.33
2022-10-22T12:01:43.623Z,63.92
2022-10-22T12:02:43.770Z,63.23
2022-10-22T12:03:43.646Z,65.07
2022-10-22T12:04:43.644Z,64.05
2022-10-22T12:05:43.599Z,63.09
2022-10-22T12:06:43.581Z,66.19
2022-10-22T12:07:43.567Z,63.03
2022-10-22T12:08:43.749Z,61.74
2022-10-22T12:09:43.615Z,65.46
2022-10-22T12:10:44.564Z,64.25
2022-10-22T12:11:43.539Z,63.10
2022-10-22T12:12:43.648Z,63.64
2022-10-22T12:13:43.536Z,63.82
2022-10-22T12:14:43.519Z,62.35
2022-10-22T12:15:43.516Z,64.44
2022-10-22T12:16:55.695Z,64.95
2022-10-22T12:17:46.370Z,65.39
2022-10-22T12:18:43.490Z,64.98
2022-10-22T12:19:43.486Z,67.60
2022-10-22T12:20:43.479Z,66.80
2022-10-22T12:21:43.487Z,67.65
2022-10-22T12:22:43.758Z,64.13
2022-10-22T12:23:43.451Z,64.82
2022-10-22T12:24:43.458Z,63.82
2022-10-22T12:25:43.451Z,63.50
2022-10-22T12:26:43.431Z,64.66
2022-10-22T12:27:43.765Z,64.79
2022-10-22T12:28:43.426Z,62.09
2022-10-22T12:29:43.409Z,64.62
2022-10-22T12:30:43.404Z,65.87
2022-10-22T12:31:43.400Z,64.16
2022-10-22T12:32:43.397Z,64.73
2022-10-22T12:33:43.391Z,65.62
2022-10-22T12:34:43.414Z,63.74
2022-10-22T12:35:44.330Z,63.32
2022-10-22T12:36:43.358Z,64.55
2022-10-22T12:37:43.607Z,62.71
2022-10-22T12:38:43.340Z,62.98
2022-10-22T12:39:43.334Z,63.13
2022-10-22T12:40:46.022Z,65.24
2022-10-22T12:41:45.316Z,65.90
2022-10-22T12:42:43.313Z,65.69
2022-10-22T12:43:43.323Z,63.68
2022-10-22T12:44:43.299Z,62.87
2022-10-22T12:45:43.293Z,64.60
2022-10-22T12:46:43.283Z,64.36
2022-10-22T12:47:43.495Z,63.90
2022-10-22T12:48:43.261Z,64.10
2022-10-22T12:49:43.268Z,69.54
2022-10-22T12:50:43.254Z,65.81
2022-10-22T12:51:43.249Z,65.08
2022-10-22T12:52:43.526Z,63.41
2022-10-22T12:53:43.235Z,64.15
2022-10-22T12:54:43.233Z,62.59
2022-10-22T12:55:43.861Z,65.31
2022-10-22T12:58:32.632Z,64.03
2022-10-22T12:59:32.629Z,62.37
2022-10-22T13:00:32.656Z,67.39
2022-10-22T13:01:33.742Z,62.20
2022-10-22T13:02:33.700Z,62.67
2022-10-22T13:03:33.694Z,63.30